sensor_id;sensor_type;location;lat;lon;timestamp;P1;durP1;ratioP1;P2;durP2;ratioP2
14708;SDS011;7445;50.774;4.944;2022-10-01T00:00:59;10.93;;;9.93;;
14708;SDS011;7445;50.774;4.944;2022-10-01T00:03:44;10.80;;;9.67;;
14708;SDS011;7445;50.774;4.944;2022-10-01T00:06:39;13.37;;;9.60;;
14708;SDS011;7445;50.774;4.944;2022-10-01T00:09:05;10.63;;;9.63;;
14708;SDS011;7445;50.774;4.944;2022-10-01T00:12:29;10.70;;;9.80;;
14708;SDS011;7445;50.774;4.944;2022-10-01T00:15:27;12.93;;;10.13;;
14708;SDS011;7445;50.774;4.944;2022-10-01T00:18:51;11.70;;;10.70;;
14708;SDS011;7445;50.774;4.944;2022-10-01T00:21:25;11.53;;;10.53;;
14708;SDS011;7445;50.774;4.944;2022-10-01T00:24:30;11.20;;;10.10;;
14708;SDS011;7445;50.774;4.944;2022-10-01T00:27:02;12.17;;;9.97;;
14708;SDS011;7445;50.774;4.944;2022-10-01T00:30:27;10.50;;;9.07;;
14708;SDS011;7445;50.774;4.944;2022-10-01T00:32:59;10.43;;;9.37;;
14708;SDS011;7445;50.774;4.944;2022-10-01T00:35:54;11.83;;;10.80;;
14708;SDS011;7445;50.774;4.944;2022-10-01T00:39:00;11.13;;;10.03;;
14708;SDS011;7445;50.774;4.944;2022-10-01T00:42:17;12.47;;;11.43;;
14708;SDS011;7445;50.774;4.944;2022-10-01T00:45:21;10.90;;;10.00;;
14708;SDS011;7445;50.774;4.944;2022-10-01T00:47:54;10.37;;;9.03;;
14708;SDS011;7445;50.774;4.944;2022-10-01T00:50:24;11.33;;;10.33;;
14708;SDS011;7445;50.774;4.944;2022-10-01T00:53:24;10.27;;;8.23;;
14708;SDS011;7445;50.774;4.944;2022-10-01T00:55:54;11.50;;;8.20;;
14708;SDS011;7445;50.774;4.944;2022-10-01T01:00:54;8.33;;;7.57;;
14708;SDS011;7445;50.774;4.944;2022-10-01T01:03:41;9.23;;;6.90;;
14708;SDS011;7445;50.774;4.944;2022-10-01T01:06:07;7.60;;;6.67;;
14708;SDS011;7445;50.774;4.944;2022-10-01T01:08:37;14.53;;;7.43;;
14708;SDS011;7445;50.774;4.944;2022-10-01T01:14:17;6.77;;;6.17;;
14708;SDS011;7445;50.774;4.944;2022-10-01T01:17:09;6.87;;;6.37;;
14708;SDS011;7445;50.774;4.944;2022-10-01T01:22:23;6.10;;;5.40;;
14708;SDS011;7445;50.774;4.944;2022-10-01T01:28:26;7.37;;;5.43;;
14708;SDS011;7445;50.774;4.944;2022-10-01T01:31:09;6.00;;;5.50;;
14708;SDS011;7445;50.774;4.944;2022-10-01T01:33:42;5.00;;;4.57;;
14708;SDS011;7445;50.774;4.944;2022-10-01T01:36:15;6.30;;;4.07;;
14708;SDS011;7445;50.774;4.944;2022-10-01T01:38:50;4.87;;;4.47;;
14708;SDS011;7445;50.774;4.944;2022-10-01T01:41:19;4.03;;;3.63;;
14708;SDS011;7445;50.774;4.944;2022-10-01T01:43:53;4.00;;;3.70;;
14708;SDS011;7445;50.774;4.944;2022-10-01T01:46:22;4.33;;;3.80;;
14708;SDS011;7445;50.774;4.944;2022-10-01T01:48:56;3.80;;;3.50;;
14708;SDS011;7445;50.774;4.944;2022-10-01T01:51:31;4.10;;;3.80;;
14708;SDS011;7445;50.774;4.944;2022-10-01T01:54:15;4.23;;;3.37;;
14708;SDS011;7445;50.774;4.944;2022-10-01T01:56:41;3.73;;;3.00;;
14708;SDS011;7445;50.774;4.944;2022-10-01T01:59:07;2.90;;;2.70;;
14708;SDS011;7445;50.774;4.944;2022-10-01T02:04:05;5.87;;;3.27;;
14708;SDS011;7445;50.774;4.944;2022-10-01T02:20:52;3.87;;;2.33;;
14708;SDS011;7445;50.774;4.944;2022-10-01T02:23:28;2.63;;;2.43;;
14708;SDS011;7445;50.774;4.944;2022-10-01T02:26:07;5.20;;;2.60;;
14708;SDS011;7445;50.774;4.944;2022-10-01T02:28:37;3.20;;;2.77;;
14708;SDS011;7445;50.774;4.944;2022-10-01T02:31:05;3.87;;;3.53;;
14708;SDS011;7445;50.774;4.944;2022-10-01T02:33:33;4.77;;;4.47;;
14708;SDS011;7445;50.774;4.944;2022-10-01T02:36:02;4.03;;;3.83;;
14708;SDS011;7445;50.774;4.944;2022-10-01T02:38:30;3.03;;;2.93;;
14708;SDS011;7445;50.774;4.944;2022-10-01T02:40:59;2.80;;;2.60;;
14708;SDS011;7445;50.774;4.944;2022-10-01T02:43:32;2.27;;;2.17;;
14708;SDS011;7445;50.774;4.944;2022-10-01T02:46:26;3.10;;;1.80;;
14708;SDS011;7445;50.774;4.944;2022-10-01T02:49:33;2.70;;;2.50;;
14708;SDS011;7445;50.774;4.944;2022-10-01T02:55:09;2.60;;;1.83;;
14708;SDS011;7445;50.774;4.944;2022-10-01T02:57:47;3.43;;;2.03;;
14708;SDS011;7445;50.774;4.944;2022-10-01T03:00:14;1.87;;;1.77;;
14708;SDS011;7445;50.774;4.944;2022-10-01T03:02:45;2.50;;;2.03;;
14708;SDS011;7445;50.774;4.944;2022-10-01T03:05:14;4.33;;;2.10;;
14708;SDS011;7445;50.774;4.944;2022-10-01T03:07:41;2.10;;;1.90;;
14708;SDS011;7445;50.774;4.944;2022-10-01T03:10:14;2.80;;;1.67;;
14708;SDS011;7445;50.774;4.944;2022-10-01T03:12:40;1.60;;;1.50;;
14708;SDS011;7445;50.774;4.944;2022-10-01T03:15:14;1.90;;;1.67;;
14708;SDS011;7445;50.774;4.944;2022-10-01T03:17:49;1.53;;;1.43;;
14708;SDS011;7445;50.774;4.944;2022-10-01T03:20:15;1.73;;;1.63;;
14708;SDS011;7445;50.774;4.944;2022-10-01T03:22:44;1.90;;;1.80;;
14708;SDS011;7445;50.774;4.944;2022-10-01T03:25:10;1.97;;;1.63;;
14708;SDS011;7445;50.774;4.944;2022-10-01T03:27:36;1.80;;;1.70;;
14708;SDS011;7445;50.774;4.944;2022-10-01T03:30:02;2.40;;;2.20;;
14708;SDS011;7445;50.774;4.944;2022-10-01T03:32:29;3.30;;;2.20;;
14708;SDS011;7445;50.774;4.944;2022-10-01T03:34:55;2.30;;;1.90;;
14708;SDS011;7445;50.774;4.944;2022-10-01T03:37:21;2.00;;;1.80;;
14708;SDS011;7445;50.774;4.944;2022-10-01T03:39:47;2.30;;;2.20;;
14708;SDS011;7445;50.774;4.944;2022-10-01T03:42:12;1.63;;;1.53;;
14708;SDS011;7445;50.774;4.944;2022-10-01T03:44:39;1.93;;;1.50;;
14708;SDS011;7445;50.774;4.944;2022-10-01T03:47:04;1.77;;;1.67;;
14708;SDS011;7445;50.774;4.944;2022-10-01T03:49:30;1.13;;;1.07;;
14708;SDS011;7445;50.774;4.944;2022-10-01T03:51:55;1.20;;;1.20;;
14708;SDS011;7445;50.774;4.944;2022-10-01T03:54:21;1.27;;;1.00;;
14708;SDS011;7445;50.774;4.944;2022-10-01T03:56:47;1.07;;;1.03;;
14708;SDS011;7445;50.774;4.944;2022-10-01T03:59:13;2.33;;;1.43;;
14708;SDS011;7445;50.774;4.944;2022-10-01T04:01:38;1.37;;;1.10;;
14708;SDS011;7445;50.774;4.944;2022-10-01T04:04:05;1.10;;;1.10;;
14708;SDS011;7445;50.774;4.944;2022-10-01T04:06:31;1.20;;;0.97;;
14708;SDS011;7445;50.774;4.944;2022-10-01T04:08:57;2.70;;;2.30;;
14708;SDS011;7445;50.774;4.944;2022-10-01T04:11:22;1.40;;;1.40;;
14708;SDS011;7445;50.774;4.944;2022-10-01T04:13:48;1.93;;;1.10;;
14708;SDS011;7445;50.774;4.944;2022-10-01T04:16:17;1.77;;;1.67;;
14708;SDS011;7445;50.774;4.944;2022-10-01T04:18:43;1.60;;;1.20;;
14708;SDS011;7445;50.774;4.944;2022-10-01T04:21:08;1.60;;;1.17;;
14708;SDS011;7445;50.774;4.944;2022-10-01T04:23:36;6.03;;;1.10;;
14708;SDS011;7445;50.774;4.944;2022-10-01T04:26:02;1.57;;;1.40;;
14708;SDS011;7445;50.774;4.944;2022-10-01T04:28:28;2.00;;;1.00;;
14708;SDS011;7445;50.774;4.944;2022-10-01T04:30:56;1.53;;;0.77;;
14708;SDS011;7445;50.774;4.944;2022-10-01T04:33:41;2.27;;;0.90;;
14708;SDS011;7445;50.774;4.944;2022-10-01T04:36:07;0.50;;;0.50;;
14708;SDS011;7445;50.774;4.944;2022-10-01T04:38:33;0.80;;;0.80;;
14708;SDS011;7445;50.774;4.944;2022-10-01T04:40:59;1.03;;;0.90;;
14708;SDS011;7445;50.774;4.944;2022-10-01T04:43:24;0.70;;;0.70;;
14708;SDS011;7445;50.774;4.944;2022-10-01T04:45:50;0.80;;;0.80;;
14708;SDS011;7445;50.774;4.944;2022-10-01T04:48:16;1.20;;;0.50;;
14708;SDS011;7445;50.774;4.944;2022-10-01T04:50:42;1.10;;;0.70;;
14708;SDS011;7445;50.774;4.944;2022-10-01T04:53:08;0.60;;;0.60;;
14708;SDS011;7445;50.774;4.944;2022-10-01T04:55:34;0.70;;;0.70;;
14708;SDS011;7445;50.774;4.944;2022-10-01T04:58:29;0.70;;;0.70;;
14708;SDS011;7445;50.774;4.944;2022-10-01T05:00:55;1.10;;;1.10;;
14708;SDS011;7445;50.774;4.944;2022-10-01T05:03:21;1.10;;;1.00;;
14708;SDS011;7445;50.774;4.944;2022-10-01T05:05:46;0.80;;;0.80;;
14708;SDS011;7445;50.774;4.944;2022-10-01T05:08:13;1.17;;;0.90;;
14708;SDS011;7445;50.774;4.944;2022-10-01T05:10:39;1.50;;;1.00;;
14708;SDS011;7445;50.774;4.944;2022-10-01T05:13:04;1.03;;;1.00;;
14708;SDS011;7445;50.774;4.944;2022-10-01T05:15:31;1.03;;;1.03;;
14708;SDS011;7445;50.774;4.944;2022-10-01T05:17:56;1.07;;;1.07;;
14708;SDS011;7445;50.774;4.944;2022-10-01T05:20:23;1.97;;;1.30;;
14708;SDS011;7445;50.774;4.944;2022-10-01T05:22:50;1.00;;;0.97;;
14708;SDS011;7445;50.774;4.944;2022-10-01T05:25:17;0.90;;;0.90;;
14708;SDS011;7445;50.774;4.944;2022-10-01T05:27:43;0.80;;;0.80;;
14708;SDS011;7445;50.774;4.944;2022-10-01T05:30:10;1.50;;;1.40;;
14708;SDS011;7445;50.774;4.944;2022-10-01T05:32:37;1.40;;;1.30;;
14708;SDS011;7445;50.774;4.944;2022-10-01T05:35:03;2.40;;;1.23;;
14708;SDS011;7445;50.774;4.944;2022-10-01T05:37:31;1.00;;;1.00;;
14708;SDS011;7445;50.774;4.944;2022-10-01T05:39:56;1.27;;;1.17;;
14708;SDS011;7445;50.774;4.944;2022-10-01T05:42:22;1.50;;;1.40;;
14708;SDS011;7445;50.774;4.944;2022-10-01T05:44:48;1.60;;;1.40;;
14708;SDS011;7445;50.774;4.944;2022-10-01T05:47:14;1.53;;;1.40;;
14708;SDS011;7445;50.774;4.944;2022-10-01T05:49:40;3.47;;;1.77;;
14708;SDS011;7445;50.774;4.944;2022-10-01T05:52:08;3.63;;;2.40;;
14708;SDS011;7445;50.774;4.944;2022-10-01T05:54:37;3.00;;;2.30;;
14708;SDS011;7445;50.774;4.944;2022-10-01T05:57:03;3.13;;;2.60;;
14708;SDS011;7445;50.774;4.944;2022-10-01T05:59:29;2.40;;;2.30;;
14708;SDS011;7445;50.774;4.944;2022-10-01T06:01:55;2.50;;;2.30;;
14708;SDS011;7445;50.774;4.944;2022-10-01T06:04:21;3.43;;;2.57;;
14708;SDS011;7445;50.774;4.944;2022-10-01T06:06:46;3.37;;;3.07;;
14708;SDS011;7445;50.774;4.944;2022-10-01T06:09:12;4.13;;;3.87;;
14708;SDS011;7445;50.774;4.944;2022-10-01T06:11:38;5.30;;;4.70;;
14708;SDS011;7445;50.774;4.944;2022-10-01T06:14:04;3.77;;;3.40;;
14708;SDS011;7445;50.774;4.944;2022-10-01T06:16:30;4.07;;;3.23;;
14708;SDS011;7445;50.774;4.944;2022-10-01T06:18:56;2.83;;;2.63;;
14708;SDS011;7445;50.774;4.944;2022-10-01T06:21:22;3.93;;;3.30;;
14708;SDS011;7445;50.774;4.944;2022-10-01T06:23:49;6.17;;;2.83;;
14708;SDS011;7445;50.774;4.944;2022-10-01T06:26:15;3.27;;;2.97;;
14708;SDS011;7445;50.774;4.944;2022-10-01T06:28:41;7.27;;;3.53;;
14708;SDS011;7445;50.774;4.944;2022-10-01T06:31:06;3.77;;;3.33;;
14708;SDS011;7445;50.774;4.944;2022-10-01T06:33:32;3.20;;;2.90;;
14708;SDS011;7445;50.774;4.944;2022-10-01T06:35:59;3.80;;;3.20;;
14708;SDS011;7445;50.774;4.944;2022-10-01T06:38:33;3.90;;;3.03;;
14708;SDS011;7445;50.774;4.944;2022-10-01T06:40:59;3.33;;;3.03;;
14708;SDS011;7445;50.774;4.944;2022-10-01T06:43:28;3.20;;;3.00;;
14708;SDS011;7445;50.774;4.944;2022-10-01T06:45:55;3.53;;;2.50;;
14708;SDS011;7445;50.774;4.944;2022-10-01T06:50:54;4.27;;;3.73;;
14708;SDS011;7445;50.774;4.944;2022-10-01T06:53:19;3.07;;;2.87;;
14708;SDS011;7445;50.774;4.944;2022-10-01T06:55:45;6.30;;;2.83;;
14708;SDS011;7445;50.774;4.944;2022-10-01T06:58:19;3.60;;;3.27;;
14708;SDS011;7445;50.774;4.944;2022-10-01T07:00:46;5.43;;;3.43;;
14708;SDS011;7445;50.774;4.944;2022-10-01T07:03:19;4.80;;;3.87;;
14708;SDS011;7445;50.774;4.944;2022-10-01T07:05:46;5.77;;;3.80;;
14708;SDS011;7445;50.774;4.944;2022-10-01T07:08:15;4.10;;;3.70;;
14708;SDS011;7445;50.774;4.944;2022-10-01T07:10:45;4.23;;;3.83;;
14708;SDS011;7445;50.774;4.944;2022-10-01T07:13:12;4.80;;;3.77;;
14708;SDS011;7445;50.774;4.944;2022-10-01T07:18:09;4.37;;;4.00;;
14708;SDS011;7445;50.774;4.944;2022-10-01T07:20:36;7.13;;;4.50;;
14708;SDS011;7445;50.774;4.944;2022-10-01T07:23:06;6.07;;;4.73;;
14708;SDS011;7445;50.774;4.944;2022-10-01T07:25:34;7.80;;;4.50;;
14708;SDS011;7445;50.774;4.944;2022-10-01T07:28:03;11.67;;;5.93;;
14708;SDS011;7445;50.774;4.944;2022-10-01T07:30:39;6.63;;;5.10;;
14708;SDS011;7445;50.774;4.944;2022-10-01T07:33:11;7.03;;;4.97;;
14708;SDS011;7445;50.774;4.944;2022-10-01T07:35:37;40.20;;;34.83;;
14708;SDS011;7445;50.774;4.944;2022-10-01T07:38:04;12.77;;;8.13;;
14708;SDS011;7445;50.774;4.944;2022-10-01T07:40:31;9.37;;;8.43;;
14708;SDS011;7445;50.774;4.944;2022-10-01T07:42:56;9.23;;;8.27;;
14708;SDS011;7445;50.774;4.944;2022-10-01T07:45:23;9.87;;;7.40;;
14708;SDS011;7445;50.774;4.944;2022-10-01T07:47:57;12.57;;;8.63;;
14708;SDS011;7445;50.774;4.944;2022-10-01T07:50:24;13.60;;;9.43;;
14708;SDS011;7445;50.774;4.944;2022-10-01T07:52:53;12.20;;;9.67;;
14708;SDS011;7445;50.774;4.944;2022-10-01T07:55:27;10.33;;;9.27;;
14708;SDS011;7445;50.774;4.944;2022-10-01T08:01:17;12.23;;;8.63;;
14708;SDS011;7445;50.774;4.944;2022-10-01T08:03:48;11.17;;;9.63;;
14708;SDS011;7445;50.774;4.944;2022-10-01T08:06:26;10.03;;;9.00;;
14708;SDS011;7445;50.774;4.944;2022-10-01T08:08:55;14.97;;;9.00;;
14708;SDS011;7445;50.774;4.944;2022-10-01T08:11:24;13.53;;;9.17;;
14708;SDS011;7445;50.774;4.944;2022-10-01T08:14:05;22.10;;;11.97;;
14708;SDS011;7445;50.774;4.944;2022-10-01T08:17:19;13.50;;;10.87;;
14708;SDS011;7445;50.774;4.944;2022-10-01T08:19:46;17.07;;;8.80;;
14708;SDS011;7445;50.774;4.944;2022-10-01T08:22:51;20.13;;;11.80;;
14708;SDS011;7445;50.774;4.944;2022-10-01T08:25:22;15.83;;;11.00;;
14708;SDS011;7445;50.774;4.944;2022-10-01T08:27:49;14.70;;;11.07;;
14708;SDS011;7445;50.774;4.944;2022-10-01T08:31:28;13.93;;;11.43;;
14708;SDS011;7445;50.774;4.944;2022-10-01T08:33:58;22.03;;;12.00;;
14708;SDS011;7445;50.774;4.944;2022-10-01T08:36:24;17.60;;;9.83;;
14708;SDS011;7445;50.774;4.944;2022-10-01T08:38:49;14.93;;;9.30;;
14708;SDS011;7445;50.774;4.944;2022-10-01T08:46:45;20.93;;;9.17;;
14708;SDS011;7445;50.774;4.944;2022-10-01T08:49:20;12.17;;;8.77;;
14708;SDS011;7445;50.774;4.944;2022-10-01T08:52:19;18.27;;;8.30;;
14708;SDS011;7445;50.774;4.944;2022-10-01T08:55:35;13.83;;;7.43;;
14708;SDS011;7445;50.774;4.944;2022-10-01T08:58:11;7.37;;;6.03;;
14708;SDS011;7445;50.774;4.944;2022-10-01T09:01:22;15.07;;;6.93;;
14708;SDS011;7445;50.774;4.944;2022-10-01T09:03:59;16.97;;;8.17;;
14708;SDS011;7445;50.774;4.944;2022-10-01T09:06:45;11.20;;;7.30;;
14708;SDS011;7445;50.774;4.944;2022-10-01T09:09:37;9.47;;;6.90;;
14708;SDS011;7445;50.774;4.944;2022-10-01T09:20:25;12.50;;;6.87;;
14708;SDS011;7445;50.774;4.944;2022-10-01T09:25:28;10.97;;;7.10;;
14708;SDS011;7445;50.774;4.944;2022-10-01T09:28:03;12.33;;;6.73;;
14708;SDS011;7445;50.774;4.944;2022-10-01T09:30:38;15.03;;;7.07;;
14708;SDS011;7445;50.774;4.944;2022-10-01T09:33:13;12.63;;;5.93;;
14708;SDS011;7445;50.774;4.944;2022-10-01T09:41:07;13.13;;;4.97;;
14708;SDS011;7445;50.774;4.944;2022-10-01T09:43:39;11.77;;;5.63;;
14708;SDS011;7445;50.774;4.944;2022-10-01T09:46:07;19.13;;;5.40;;
14708;SDS011;7445;50.774;4.944;2022-10-01T09:53:42;10.60;;;3.97;;
14708;SDS011;7445;50.774;4.944;2022-10-01T09:56:18;14.47;;;5.00;;
14708;SDS011;7445;50.774;4.944;2022-10-01T09:58:51;13.80;;;4.60;;
14708;SDS011;7445;50.774;4.944;2022-10-01T10:01:25;10.23;;;4.50;;
14708;SDS011;7445;50.774;4.944;2022-10-01T10:04:04;10.80;;;4.60;;
14708;SDS011;7445;50.774;4.944;2022-10-01T10:06:29;9.97;;;3.80;;
14708;SDS011;7445;50.774;4.944;2022-10-01T10:08:56;11.30;;;4.37;;
14708;SDS011;7445;50.774;4.944;2022-10-01T10:11:25;13.37;;;3.80;;
14708;SDS011;7445;50.774;4.944;2022-10-01T10:13:55;15.87;;;4.80;;
14708;SDS011;7445;50.774;4.944;2022-10-01T10:16:33;11.90;;;5.03;;
14708;SDS011;7445;50.774;4.944;2022-10-01T10:19:22;11.90;;;4.17;;
14708;SDS011;7445;50.774;4.944;2022-10-01T10:21:52;19.03;;;4.93;;
14708;SDS011;7445;50.774;4.944;2022-10-01T10:24:31;9.97;;;3.10;;
14708;SDS011;7445;50.774;4.944;2022-10-01T10:26:59;13.37;;;3.70;;
14708;SDS011;7445;50.774;4.944;2022-10-01T10:29:33;9.97;;;5.37;;
14708;SDS011;7445;50.774;4.944;2022-10-01T10:32:11;8.47;;;2.70;;
14708;SDS011;7445;50.774;4.944;2022-10-01T10:34:38;12.70;;;3.77;;
14708;SDS011;7445;50.774;4.944;2022-10-01T10:37:12;6.80;;;3.47;;
14708;SDS011;7445;50.774;4.944;2022-10-01T10:39:45;9.13;;;3.40;;
14708;SDS011;7445;50.774;4.944;2022-10-01T10:42:15;9.47;;;4.07;;
14708;SDS011;7445;50.774;4.944;2022-10-01T10:44:43;10.60;;;2.90;;
14708;SDS011;7445;50.774;4.944;2022-10-01T10:47:12;12.63;;;3.83;;
14708;SDS011;7445;50.774;4.944;2022-10-01T10:49:52;3.23;;;2.80;;
14708;SDS011;7445;50.774;4.944;2022-10-01T10:54:48;8.93;;;3.27;;
14708;SDS011;7445;50.774;4.944;2022-10-01T10:57:29;10.40;;;3.23;;
14708;SDS011;7445;50.774;4.944;2022-10-01T11:02:50;12.50;;;2.37;;
14708;SDS011;7445;50.774;4.944;2022-10-01T11:05:20;13.03;;;3.93;;
14708;SDS011;7445;50.774;4.944;2022-10-01T11:07:49;7.97;;;3.03;;
14708;SDS011;7445;50.774;4.944;2022-10-01T11:10:42;10.90;;;3.40;;
14708;SDS011;7445;50.774;4.944;2022-10-01T11:18:14;12.73;;;4.33;;
14708;SDS011;7445;50.774;4.944;2022-10-01T11:39:52;16.60;;;4.50;;
14708;SDS011;7445;50.774;4.944;2022-10-01T11:42:25;5.50;;;2.33;;
14708;SDS011;7445;50.774;4.944;2022-10-01T11:45:03;15.27;;;4.00;;
14708;SDS011;7445;50.774;4.944;2022-10-01T11:47:40;12.70;;;3.17;;
14708;SDS011;7445;50.774;4.944;2022-10-01T11:50:17;7.73;;;3.20;;
14708;SDS011;7445;50.774;4.944;2022-10-01T11:53:00;4.87;;;2.40;;
14708;SDS011;7445;50.774;4.944;2022-10-01T11:55:43;8.60;;;3.17;;
14708;SDS011;7445;50.774;4.944;2022-10-01T11:58:33;14.77;;;2.93;;
14708;SDS011;7445;50.774;4.944;2022-10-01T12:01:26;6.93;;;2.87;;
14708;SDS011;7445;50.774;4.944;2022-10-01T12:04:03;7.47;;;2.93;;
14708;SDS011;7445;50.774;4.944;2022-10-01T12:07:20;8.70;;;2.90;;
14708;SDS011;7445;50.774;4.944;2022-10-01T12:12:39;10.20;;;2.87;;
14708;SDS011;7445;50.774;4.944;2022-10-01T12:15:45;8.57;;;2.87;;
14708;SDS011;7445;50.774;4.944;2022-10-01T12:21:24;10.40;;;2.77;;
14708;SDS011;7445;50.774;4.944;2022-10-01T12:24:10;11.23;;;2.73;;
14708;SDS011;7445;50.774;4.944;2022-10-01T12:26:52;5.50;;;2.47;;
14708;SDS011;7445;50.774;4.944;2022-10-01T12:40:57;7.97;;;2.87;;
14708;SDS011;7445;50.774;4.944;2022-10-01T12:46:20;9.33;;;2.43;;
14708;SDS011;7445;50.774;4.944;2022-10-01T12:54:13;7.17;;;2.33;;
14708;SDS011;7445;50.774;4.944;2022-10-01T13:02:33;7.17;;;1.90;;
14708;SDS011;7445;50.774;4.944;2022-10-01T13:07:55;8.23;;;1.93;;
14708;SDS011;7445;50.774;4.944;2022-10-01T13:13:32;4.87;;;2.17;;
14708;SDS011;7445;50.774;4.944;2022-10-01T13:16:07;5.10;;;1.87;;
14708;SDS011;7445;50.774;4.944;2022-10-01T13:21:39;9.37;;;3.13;;
14708;SDS011;7445;50.774;4.944;2022-10-01T13:26:32;8.60;;;2.80;;
14708;SDS011;7445;50.774;4.944;2022-10-01T13:29:11;14.10;;;3.37;;
14708;SDS011;7445;50.774;4.944;2022-10-01T13:31:56;7.70;;;1.83;;
14708;SDS011;7445;50.774;4.944;2022-10-01T13:34:30;8.70;;;2.27;;
14708;SDS011;7445;50.774;4.944;2022-10-01T13:39:37;5.40;;;1.93;;
14708;SDS011;7445;50.774;4.944;2022-10-01T13:42:08;12.83;;;2.00;;
14708;SDS011;7445;50.774;4.944;2022-10-01T13:44:41;5.73;;;1.67;;
14708;SDS011;7445;50.774;4.944;2022-10-01T13:47:07;9.30;;;2.13;;
14708;SDS011;7445;50.774;4.944;2022-10-01T13:49:34;7.50;;;2.27;;
14708;SDS011;7445;50.774;4.944;2022-10-01T13:52:01;11.33;;;2.60;;
14708;SDS011;7445;50.774;4.944;2022-10-01T13:57:08;5.50;;;2.27;;
14708;SDS011;7445;50.774;4.944;2022-10-01T13:59:46;6.03;;;2.17;;
14708;SDS011;7445;50.774;4.944;2022-10-01T14:02:30;6.90;;;2.30;;
14708;SDS011;7445;50.774;4.944;2022-10-01T14:05:41;7.70;;;2.43;;
14708;SDS011;7445;50.774;4.944;2022-10-01T14:07:55;7.60;;;1.93;;
14708;SDS011;7445;50.774;4.944;2022-10-01T14:10:45;4.37;;;1.23;;
14708;SDS011;7445;50.774;4.944;2022-10-01T14:13:41;4.70;;;2.00;;
14708;SDS011;7445;50.774;4.944;2022-10-01T14:16:34;7.83;;;2.00;;
14708;SDS011;7445;50.774;4.944;2022-10-01T14:19:03;6.47;;;2.03;;
14708;SDS011;7445;50.774;4.944;2022-10-01T14:29:21;9.10;;;3.07;;
14708;SDS011;7445;50.774;4.944;2022-10-01T14:32:04;5.70;;;2.47;;
14708;SDS011;7445;50.774;4.944;2022-10-01T14:37:43;21.47;;;3.13;;
14708;SDS011;7445;50.774;4.944;2022-10-01T14:42:54;4.57;;;2.23;;
14708;SDS011;7445;50.774;4.944;2022-10-01T14:45:21;7.07;;;2.00;;
14708;SDS011;7445;50.774;4.944;2022-10-01T14:47:58;10.00;;;2.90;;
14708;SDS011;7445;50.774;4.944;2022-10-01T14:50:24;11.60;;;2.17;;
14708;SDS011;7445;50.774;4.944;2022-10-01T14:52:50;8.10;;;2.10;;
14708;SDS011;7445;50.774;4.944;2022-10-01T14:55:17;6.03;;;2.03;;
14708;SDS011;7445;50.774;4.944;2022-10-01T14:57:47;7.20;;;2.43;;
14708;SDS011;7445;50.774;4.944;2022-10-01T15:00:17;11.83;;;1.60;;
14708;SDS011;7445;50.774;4.944;2022-10-01T15:03:02;9.53;;;2.00;;
14708;SDS011;7445;50.774;4.944;2022-10-01T15:05:35;7.57;;;2.27;;
14708;SDS011;7445;50.774;4.944;2022-10-01T15:10:40;7.73;;;1.87;;
14708;SDS011;7445;50.774;4.944;2022-10-01T15:13:19;5.13;;;1.57;;
14708;SDS011;7445;50.774;4.944;2022-10-01T15:15:49;5.07;;;2.53;;
14708;SDS011;7445;50.774;4.944;2022-10-01T15:18:16;5.93;;;2.30;;
14708;SDS011;7445;50.774;4.944;2022-10-01T15:20:49;9.57;;;2.53;;
14708;SDS011;7445;50.774;4.944;2022-10-01T15:23:16;5.30;;;1.80;;
14708;SDS011;7445;50.774;4.944;2022-10-01T15:25:42;8.03;;;1.77;;
14708;SDS011;7445;50.774;4.944;2022-10-01T15:28:12;1.93;;;1.60;;
14708;SDS011;7445;50.774;4.944;2022-10-01T15:30:39;5.33;;;2.37;;
14708;SDS011;7445;50.774;4.944;2022-10-01T15:33:09;3.60;;;1.70;;
14708;SDS011;7445;50.774;4.944;2022-10-01T15:35:47;11.20;;;2.70;;
14708;SDS011;7445;50.774;4.944;2022-10-01T15:38:14;5.97;;;1.83;;
14708;SDS011;7445;50.774;4.944;2022-10-01T15:40:40;5.43;;;2.10;;
14708;SDS011;7445;50.774;4.944;2022-10-01T15:45:38;8.87;;;2.57;;
14708;SDS011;7445;50.774;4.944;2022-10-01T15:48:09;6.83;;;2.17;;
14708;SDS011;7445;50.774;4.944;2022-10-01T15:50:55;5.93;;;2.17;;
14708;SDS011;7445;50.774;4.944;2022-10-01T15:53:26;9.70;;;3.03;;
14708;SDS011;7445;50.774;4.944;2022-10-01T15:55:54;5.80;;;1.67;;
14708;SDS011;7445;50.774;4.944;2022-10-01T15:58:23;8.23;;;2.30;;
14708;SDS011;7445;50.774;4.944;2022-10-01T16:03:34;6.17;;;1.87;;
14708;SDS011;7445;50.774;4.944;2022-10-01T16:06:28;6.57;;;3.10;;
14708;SDS011;7445;50.774;4.944;2022-10-01T16:09:05;4.27;;;1.77;;
14708;SDS011;7445;50.774;4.944;2022-10-01T16:14:42;4.40;;;2.20;;
14708;SDS011;7445;50.774;4.944;2022-10-01T16:19:50;6.50;;;1.73;;
14708;SDS011;7445;50.774;4.944;2022-10-01T16:22:41;5.53;;;1.97;;
14708;SDS011;7445;50.774;4.944;2022-10-01T16:27:47;7.23;;;2.13;;
14708;SDS011;7445;50.774;4.944;2022-10-01T16:30:25;6.00;;;2.23;;
14708;SDS011;7445;50.774;4.944;2022-10-01T16:32:52;4.17;;;1.60;;
14708;SDS011;7445;50.774;4.944;2022-10-01T16:37:44;7.53;;;2.27;;
14708;SDS011;7445;50.774;4.944;2022-10-01T16:40:12;10.47;;;2.13;;
14708;SDS011;7445;50.774;4.944;2022-10-01T16:42:38;9.23;;;3.30;;
14708;SDS011;7445;50.774;4.944;2022-10-01T16:45:04;8.90;;;2.47;;
14708;SDS011;7445;50.774;4.944;2022-10-01T16:47:31;10.30;;;2.27;;
14708;SDS011;7445;50.774;4.944;2022-10-01T16:49:57;6.17;;;2.00;;
14708;SDS011;7445;50.774;4.944;2022-10-01T16:52:24;9.50;;;2.73;;
14708;SDS011;7445;50.774;4.944;2022-10-01T16:54:49;6.07;;;2.40;;
14708;SDS011;7445;50.774;4.944;2022-10-01T16:57:15;8.70;;;2.93;;
14708;SDS011;7445;50.774;4.944;2022-10-01T16:59:44;7.93;;;1.97;;
14708;SDS011;7445;50.774;4.944;2022-10-01T17:02:13;12.50;;;4.33;;
14708;SDS011;7445;50.774;4.944;2022-10-01T17:04:39;9.40;;;6.23;;
14708;SDS011;7445;50.774;4.944;2022-10-01T17:07:04;9.87;;;5.30;;
14708;SDS011;7445;50.774;4.944;2022-10-01T17:09:30;10.77;;;7.23;;
14708;SDS011;7445;50.774;4.944;2022-10-01T17:11:56;12.30;;;10.67;;
14708;SDS011;7445;50.774;4.944;2022-10-01T17:14:23;11.23;;;9.80;;
14708;SDS011;7445;50.774;4.944;2022-10-01T17:16:48;10.93;;;7.67;;
14708;SDS011;7445;50.774;4.944;2022-10-01T17:19:15;8.40;;;6.87;;
14708;SDS011;7445;50.774;4.944;2022-10-01T17:21:42;15.90;;;5.77;;
14708;SDS011;7445;50.774;4.944;2022-10-01T17:24:08;8.73;;;4.50;;
14708;SDS011;7445;50.774;4.944;2022-10-01T17:26:38;7.17;;;3.07;;
14708;SDS011;7445;50.774;4.944;2022-10-01T17:29:11;8.83;;;2.53;;
14708;SDS011;7445;50.774;4.944;2022-10-01T17:31:37;10.10;;;3.23;;
14708;SDS011;7445;50.774;4.944;2022-10-01T17:34:05;9.10;;;2.90;;
14708;SDS011;7445;50.774;4.944;2022-10-01T17:36:31;6.80;;;2.77;;
14708;SDS011;7445;50.774;4.944;2022-10-01T17:38:59;7.60;;;2.67;;
14708;SDS011;7445;50.774;4.944;2022-10-01T17:41:25;6.90;;;3.10;;
14708;SDS011;7445;50.774;4.944;2022-10-01T17:43:51;6.93;;;2.23;;
14708;SDS011;7445;50.774;4.944;2022-10-01T17:46:17;9.53;;;3.83;;
14708;SDS011;7445;50.774;4.944;2022-10-01T17:48:42;8.60;;;3.13;;
14708;SDS011;7445;50.774;4.944;2022-10-01T17:51:10;7.53;;;2.73;;
14708;SDS011;7445;50.774;4.944;2022-10-01T17:53:39;7.43;;;3.53;;
14708;SDS011;7445;50.774;4.944;2022-10-01T17:56:05;2.67;;;1.97;;
14708;SDS011;7445;50.774;4.944;2022-10-01T17:58:41;6.13;;;2.43;;
14708;SDS011;7445;50.774;4.944;2022-10-01T18:01:12;9.20;;;3.23;;
14708;SDS011;7445;50.774;4.944;2022-10-01T18:03:39;5.23;;;2.80;;
14708;SDS011;7445;50.774;4.944;2022-10-01T18:06:05;8.30;;;2.83;;
14708;SDS011;7445;50.774;4.944;2022-10-01T18:08:34;6.67;;;2.87;;
14708;SDS011;7445;50.774;4.944;2022-10-01T18:11:06;7.23;;;3.33;;
14708;SDS011;7445;50.774;4.944;2022-10-01T18:13:34;8.27;;;2.80;;
14708;SDS011;7445;50.774;4.944;2022-10-01T18:16:01;7.17;;;3.17;;
14708;SDS011;7445;50.774;4.944;2022-10-01T18:18:33;8.77;;;3.33;;
14708;SDS011;7445;50.774;4.944;2022-10-01T18:20:59;8.03;;;3.00;;
14708;SDS011;7445;50.774;4.944;2022-10-01T18:23:29;6.47;;;3.27;;
14708;SDS011;7445;50.774;4.944;2022-10-01T18:25:55;10.07;;;4.03;;
14708;SDS011;7445;50.774;4.944;2022-10-01T18:28:27;12.10;;;3.57;;